Photometre #543[NE_1.6] Beijing-CAMS AOT

File : 20200925_543.hum

25/09/2020,00:08:21,TEMP=21.4,BA=5.48,STAT.A=16.0,ExtBa=12.25
25/09/2020,00:10:39,TEMP=21.6,BA=5.52,STAT.A=16.0,ExtBa=12.25
25/09/2020,00:21:22,TEMP=21.3,BA=5.64,STAT.D=16.0,ExtBa=12.31
25/09/2020,00:23:13,TEMP=21.6,BA=5.64,STAT.A=16.0,ExtBa=12.27
25/09/2020,00:27:22,TEMP=21.6,BA=5.64,STAT.D=16.0,ExtBa=12.29
25/09/2020,00:30:22,TEMP=21.8,BA=5.64,STAT.D=16.0,ExtBa=12.27
25/09/2020,00:33:22,TEMP=21.9,BA=5.64,STAT.D=16.0,ExtBa=12.26
25/09/2020,00:35:56,TEMP=22.0,BA=5.64,STAT.A=16.0,ExtBa=12.26
25/09/2020,00:39:22,TEMP=22.1,BA=5.64,STAT.D=16.0,ExtBa=12.27
25/09/2020,00:42:22,TEMP=22.3,BA=5.56,STAT.D=16.0,ExtBa=12.26
25/09/2020,00:45:22,TEMP=22.7,BA=5.56,STAT.D=16.0,ExtBa=12.26
25/09/2020,00:48:22,TEMP=23.2,BA=5.56,STAT.D=16.0,ExtBa=12.27
25/09/2020,00:51:22,TEMP=23.6,BA=5.64,STAT.D=16.0,ExtBa=12.26
25/09/2020,00:53:33,TEMP=24.0,BA=5.64,STAT.B=16.0,ExtBa=12.25
25/09/2020,01:03:22,TEMP=24.2,BA=5.52,STAT.D=16.0,ExtBa=12.26
25/09/2020,01:06:22,TEMP=24.4,BA=5.52,STAT.D=16.0,ExtBa=12.25
25/09/2020,01:08:16,TEMP=24.8,BA=5.52,STAT.F,ExtBa=12.23
25/09/2020,01:23:02,TEMP=25.1,BA=5.52,STAT.D=16.0,ExtBa=12.25
25/09/2020,01:27:22,TEMP=25.5,BA=5.52,STAT.D=16.0,ExtBa=12.25
25/09/2020,01:30:22,TEMP=25.9,BA=5.64,STAT.D=16.0,ExtBa=12.24
25/09/2020,01:33:22,TEMP=25.9,BA=5.64,STAT.D=16.0,ExtBa=12.23
25/09/2020,01:36:22,TEMP=26.1,BA=5.64,STAT.D=16.0,ExtBa=12.23
25/09/2020,01:38:13,TEMP=26.4,BA=5.64,STAT.D=16.0,ExtBa=12.22
25/09/2020,01:42:22,TEMP=26.6,BA=5.52,STAT.D=16.0,ExtBa=12.24
25/09/2020,01:45:22,TEMP=27.0,BA=5.52,STAT.D=16.0,ExtBa=12.23
25/09/2020,01:48:22,TEMP=27.2,BA=5.52,STAT.D=16.0,ExtBa=12.24
25/09/2020,01:51:22,TEMP=27.5,BA=5.56,STAT.D=16.0,ExtBa=12.24
25/09/2020,01:53:14,TEMP=27.8,BA=5.56,STAT.D=16.0,ExtBa=12.22
25/09/2020,01:57:22,TEMP=27.9,BA=5.56,STAT.D=16.0,ExtBa=12.24
25/09/2020,02:00:22,TEMP=28.2,BA=5.64,STAT.D=16.0,ExtBa=12.23
25/09/2020,02:03:22,TEMP=28.3,BA=5.64,STAT.D=16.0,ExtBa=12.23
25/09/2020,02:06:22,TEMP=28.5,BA=5.64,STAT.D=16.0,ExtBa=12.23
25/09/2020,02:08:16,TEMP=28.7,BA=5.64,STAT.F,ExtBa=12.20
25/09/2020,02:23:11,TEMP=28.3,BA=5.48,STAT.D=16.5,ExtBa=12.23
25/09/2020,02:27:22,TEMP=28.3,BA=5.48,STAT.D=16.5,ExtBa=12.23
25/09/2020,02:30:22,TEMP=28.6,BA=5.64,STAT.D=16.5,ExtBa=12.21
25/09/2020,02:33:23,TEMP=28.9,BA=5.64,STAT.D=16.5,ExtBa=12.21
25/09/2020,02:36:23,TEMP=29.2,BA=5.64,STAT.D=16.5,ExtBa=12.21
25/09/2020,02:38:14,TEMP=29.5,BA=5.64,STAT.D=16.0,ExtBa=12.19
25/09/2020,02:42:22,TEMP=29.6,BA=5.52,STAT.D=16.5,ExtBa=12.22
25/09/2020,02:45:22,TEMP=29.8,BA=5.52,STAT.D=16.5,ExtBa=12.21
25/09/2020,02:48:23,TEMP=29.9,BA=5.52,STAT.D=16.5,ExtBa=12.21
25/09/2020,02:51:23,TEMP=30.0,BA=5.56,STAT.D=16.5,ExtBa=12.20
25/09/2020,02:53:13,TEMP=30.2,BA=5.56,STAT.D=16.0,ExtBa=12.18
25/09/2020,02:57:23,TEMP=30.3,BA=5.56,STAT.D=16.5,ExtBa=12.22
25/09/2020,03:00:23,TEMP=30.6,BA=5.64,STAT.D=16.5,ExtBa=12.21
25/09/2020,03:03:23,TEMP=30.8,BA=5.64,STAT.D=16.5,ExtBa=12.21
25/09/2020,03:06:23,TEMP=30.8,BA=5.64,STAT.D=16.5,ExtBa=12.21
25/09/2020,03:08:14,TEMP=31.1,BA=5.64,STAT.F,ExtBa=12.17
25/09/2020,03:22:58,TEMP=30.4,BA=5.48,STAT.D=16.5,ExtBa=12.24
25/09/2020,03:27:23,TEMP=29.9,BA=5.48,STAT.D=16.5,ExtBa=12.23
25/09/2020,03:30:23,TEMP=29.9,BA=5.64,STAT.D=16.5,ExtBa=12.21
25/09/2020,03:33:23,TEMP=30.0,BA=5.64,STAT.D=16.5,ExtBa=12.21
25/09/2020,03:36:23,TEMP=29.8,BA=5.64,STAT.D=16.5,ExtBa=12.20
25/09/2020,03:38:13,TEMP=29.9,BA=5.64,STAT.D=16.5,ExtBa=12.19
25/09/2020,03:42:23,TEMP=29.7,BA=5.52,STAT.D=16.5,ExtBa=12.21
25/09/2020,03:45:23,TEMP=30.1,BA=5.52,STAT.D=16.5,ExtBa=12.20
25/09/2020,03:48:23,TEMP=30.4,BA=5.52,STAT.D=16.5,ExtBa=12.20
25/09/2020,03:51:23,TEMP=30.5,BA=5.52,STAT.D=16.5,ExtBa=12.20
25/09/2020,03:53:14,TEMP=30.8,BA=5.52,STAT.D=16.5,ExtBa=12.18
25/09/2020,03:57:23,TEMP=30.9,BA=5.52,STAT.D=16.5,ExtBa=12.21
25/09/2020,04:00:23,TEMP=31.2,BA=5.64,STAT.D=16.5,ExtBa=12.20
25/09/2020,04:03:23,TEMP=31.3,BA=5.64,STAT.D=16.5,ExtBa=12.19
25/09/2020,04:06:23,TEMP=31.0,BA=5.64,STAT.D=16.5,ExtBa=12.19
25/09/2020,04:08:15,TEMP=30.9,BA=5.64,STAT.F,ExtBa=12.16
25/09/2020,04:24:25,TEMP=29.6,BA=5.44,STAT.D=16.5,ExtBa=12.39
25/09/2020,04:27:23,TEMP=29.6,BA=5.44,STAT.D=16.5,ExtBa=12.37
25/09/2020,04:30:23,TEMP=29.6,BA=5.64,STAT.D=16.5,ExtBa=12.35
25/09/2020,04:33:23,TEMP=29.8,BA=5.64,STAT.D=16.5,ExtBa=12.33
25/09/2020,04:36:23,TEMP=29.9,BA=5.64,STAT.D=16.5,ExtBa=12.34
25/09/2020,04:38:15,TEMP=30.1,BA=5.64,STAT.D=16.5,ExtBa=12.34
25/09/2020,04:42:23,TEMP=29.8,BA=5.48,STAT.D=16.5,ExtBa=12.32
25/09/2020,04:45:23,TEMP=30.0,BA=5.48,STAT.D=16.5,ExtBa=12.39
25/09/2020,04:48:23,TEMP=30.3,BA=5.48,STAT.D=16.5,ExtBa=12.36
25/09/2020,04:51:23,TEMP=30.3,BA=5.52,STAT.D=16.5,ExtBa=12.34
25/09/2020,04:53:15,TEMP=30.5,BA=5.52,STAT.D=16.5,ExtBa=12.36
25/09/2020,04:57:23,TEMP=30.4,BA=5.52,STAT.D=16.5,ExtBa=12.33
25/09/2020,05:00:23,TEMP=30.4,BA=5.64,STAT.D=16.5,ExtBa=12.34
25/09/2020,05:03:23,TEMP=30.4,BA=5.64,STAT.D=16.5,ExtBa=12.33
25/09/2020,05:06:23,TEMP=30.6,BA=5.64,STAT.D=16.5,ExtBa=12.33
25/09/2020,05:08:15,TEMP=30.9,BA=5.64,STAT.F,ExtBa=12.32
25/09/2020,05:23:14,TEMP=31.0,BA=5.44,STAT.D=16.5,ExtBa=12.44
25/09/2020,05:27:23,TEMP=31.3,BA=5.44,STAT.D=16.5,ExtBa=12.41
25/09/2020,05:30:23,TEMP=31.6,BA=5.64,STAT.D=16.5,ExtBa=12.40
25/09/2020,05:33:23,TEMP=31.6,BA=5.64,STAT.D=16.5,ExtBa=12.38
25/09/2020,05:36:22,TEMP=31.2,BA=5.64,STAT.D=16.5,ExtBa=12.37
25/09/2020,05:38:13,TEMP=31.2,BA=5.64,STAT.D=16.5,ExtBa=12.39
25/09/2020,05:42:22,TEMP=30.7,BA=5.48,STAT.D=16.5,ExtBa=12.35
25/09/2020,05:45:22,TEMP=30.8,BA=5.48,STAT.D=16.5,ExtBa=12.39
25/09/2020,05:48:22,TEMP=30.9,BA=5.48,STAT.D=16.5,ExtBa=12.37
25/09/2020,05:51:23,TEMP=30.8,BA=5.52,STAT.D=16.5,ExtBa=12.37
25/09/2020,05:53:14,TEMP=30.9,BA=5.52,STAT.D=16.5,ExtBa=12.38
25/09/2020,05:57:22,TEMP=30.7,BA=5.52,STAT.D=16.5,ExtBa=12.36
25/09/2020,06:00:22,TEMP=30.8,BA=5.64,STAT.D=16.5,ExtBa=12.37
25/09/2020,06:03:22,TEMP=30.7,BA=5.64,STAT.D=16.5,ExtBa=12.36
25/09/2020,06:06:22,TEMP=30.4,BA=5.64,STAT.D=16.5,ExtBa=12.36
25/09/2020,06:08:15,TEMP=30.6,BA=5.64,STAT.F,ExtBa=12.34
25/09/2020,06:23:17,TEMP=31.0,BA=5.44,STAT.D=16.5,ExtBa=12.47
25/09/2020,06:27:22,TEMP=31.1,BA=5.44,STAT.D=16.5,ExtBa=12.47
25/09/2020,06:30:22,TEMP=31.2,BA=5.64,STAT.D=16.5,ExtBa=12.45
25/09/2020,06:33:22,TEMP=31.1,BA=5.64,STAT.D=16.5,ExtBa=12.43
25/09/2020,06:36:22,TEMP=30.9,BA=5.64,STAT.D=16.5,ExtBa=12.43
25/09/2020,06:38:18,TEMP=30.9,BA=5.64,STAT.D=16.5,ExtBa=12.44
25/09/2020,06:42:22,TEMP=30.6,BA=5.48,STAT.D=16.5,ExtBa=12.42
25/09/2020,06:45:22,TEMP=30.7,BA=5.48,STAT.D=16.5,ExtBa=12.42
25/09/2020,06:48:22,TEMP=30.8,BA=5.48,STAT.D=16.5,ExtBa=12.41
25/09/2020,06:51:22,TEMP=30.6,BA=5.48,STAT.D=16.5,ExtBa=12.41
25/09/2020,06:54:45,TEMP=30.2,BA=5.48,STAT.D=16.5,ExtBa=12.44